Time;durP1;ratioP1;P1;durP2;ratioP2;P2;SDS_P1;SDS_P2;PMS_P1;PMS_P2;Temp;Humidity;BMP_temperature;BMP_pressure;BME280_temperature;BME280_humidity;BME280_pressure;Samples;Min_cycle;Max_cycle;Signal;HPM_P1;HPM_P2
2022/11/30 00:01:05;;;;;;;;;;;;;;;;;;5070543;28;20028;-78
2022/11/30 00:03:30;;;;;;;22.45;12.88;;;;;;;;;;5092258;28;19924;-78
2022/11/30 00:05:56;;;;;;;;;;;;;;;;;;5068632;28;20151;-78
2022/11/30 00:08:46;;;;;;;28.02;12.57;;;;;;;;;;5071715;28;19938;-78
2022/11/30 00:11:12;;;;;;;;;;;;;;;;;;5057330;28;20119;-78
2022/11/30 00:13:37;;;;;;;23.60;12.35;;;;;;;;;;5071264;28;19914;-78
2022/11/30 00:16:02;;;;;;;;;;;;;;;;;;5074351;28;20032;-78
2022/11/30 00:18:28;;;;;;;25.30;13.35;;;;;;;;;;5089452;28;19915;-77
2022/11/30 00:20:54;;;;;;;26.02;13.55;;;;;;;;;;5056966;28;20036;-78
2022/11/30 00:23:19;;;;;;;25.88;12.73;;;;;;;;;;5061360;28;20033;-78
2022/11/30 00:25:45;;;;;;;;;;;;;;;;;;5072036;28;20138;-78
2022/11/30 00:28:10;;;;;;;25.27;14.27;;;;;;;;;;5070252;28;19973;-77
2022/11/30 00:30:36;;;;;;;;;;;;;;;;;;5072211;28;20066;-78
2022/11/30 00:33:01;;;;;;;28.88;14.90;;;;;;;;;;5056220;28;20257;-79
2022/11/30 00:35:26;;;;;;;27.00;13.05;;;;;;;;;;5054861;28;20054;-78
2022/11/30 00:37:52;;;;;;;;;;;;;;;;;;5073263;28;20028;-78
2022/11/30 00:40:17;;;;;;;25.50;14.10;;;;;;;;;;5061269;28;19912;-78
2022/11/30 00:42:43;;;;;;;;;;;;;;;;;;5056205;28;20016;-78
2022/11/30 00:45:08;;;;;;;25.80;13.07;;;;;;;;;;5071399;28;20423;-78
2022/11/30 00:47:34;;;;;;;25.73;13.57;;;;;;;;;;5071895;28;20036;-78
2022/11/30 00:49:59;;;;;;;;;;;;;;;;;;5060997;28;20077;-78
2022/11/30 00:52:25;;;;;;;26.85;13.18;;;;;;;;;;5070574;28;20002;-78
2022/11/30 00:54:50;;;;;;;;;;;;;;;;;;5050745;28;20449;-78
2022/11/30 00:57:15;;;;;;;28.55;14.32;;;;;;;;;;5044794;28;20007;-78
2022/11/30 00:59:41;;;;;;;;;;;;;;;;;;5056551;28;20070;-78
2022/11/30 01:02:07;;;;;;;24.52;13.13;;;;;;;;;;5063180;28;19914;-78
2022/11/30 01:04:32;;;;;;;;;;;;;;;;;;5044055;28;20052;-79
2022/11/30 01:06:58;;;;;;;25.90;14.18;;;;;;;;;;5032874;28;19908;-78
2022/11/30 01:09:23;;;;;;;26.73;13.50;;;;;;;;;;5027133;28;20037;-78
2022/11/30 01:11:49;;;;;;;24.27;13.50;;;;;;;;;;5061689;28;20033;-78
2022/11/30 01:14:14;;;;;;;;;;;;;;;;;;5044758;28;20436;-78
2022/11/30 01:16:39;;;;;;;28.27;13.48;;;;;;;;;;5042379;28;19909;-79
2022/11/30 01:19:05;;;;;;;;;;;;;;;;;;5055803;28;20035;-78
2022/11/30 01:21:30;;;;;;;27.98;14.25;;;;;;;;;;5066746;28;19915;-78
2022/11/30 01:23:56;;;;;;;;;;;;;;;;;;5060290;28;20044;-78
2022/11/30 01:26:21;;;;;;;25.73;14.13;;;;;;;;;;5048718;28;20291;-78
2022/11/30 01:28:47;;;;;;;;;;;;;;;;;;5042923;28;20106;-78
2022/11/30 01:31:12;;;;;;;26.10;14.02;;;;;;;;;;5031709;28;19909;-78
2022/11/30 01:33:38;;;;;;;;;;;;;;;;;;5046259;28;20036;-78
2022/11/30 01:36:04;;;;;;;30.67;14.93;;;;;;;;;;5042508;28;19996;-78
2022/11/30 01:38:33;;;;;;;30.08;15.32;;;;;;;;;;5020409;28;20410;-78
2022/11/30 01:40:59;;;;;;;31.10;16.10;;;;;;;;;;5035416;28;20039;-78
2022/11/30 01:43:24;;;;;;;;;;;;;;;;;;5032402;28;20041;-78
2022/11/30 01:45:50;;;;;;;28.98;17.60;;;;;;;;;;5066794;28;20378;-78
2022/11/30 01:48:15;;;;;;;;;;;;;;;;;;5048565;28;20036;-78
2022/11/30 01:50:40;;;;;;;27.48;14.20;;;;;;;;;;5067684;28;19908;-78
2022/11/30 01:53:06;;;;;;;;;;;;;;;;;;5044954;28;20411;-78
2022/11/30 01:55:36;;;;;;;29.10;14.73;;;;;;;;;;5067579;28;19999;-78
2022/11/30 01:58:14;;;;;;;29.92;15.13;;;;;;;;;;5020606;28;20029;-78
2022/11/30 02:00:41;;;;;;;28.73;15.43;;;;;;;;;;5046740;28;20032;-78
2022/11/30 02:03:18;;;;;;;27.65;15.05;;;;;;;;;;5029239;28;20035;-77
2022/11/30 02:08:34;;;;;;;29.42;15.50;;;;;;;;;;5038623;28;20294;-78
2022/11/30 02:11:00;;;;;;;;;;;;;;;;;;5042204;28;20138;-78
2022/11/30 02:13:28;;;;;;;28.90;14.73;;;;;;;;;;5040377;28;19913;-78
2022/11/30 02:16:12;;;;;;;27.40;15.75;;;;;;;;;;5040515;28;20825;-78
2022/11/30 02:19:00;;;;;;;27.63;15.27;;;;;;;;;;5054809;28;20033;-78
2022/11/30 02:21:44;;;;;;;31.63;15.15;;;;;;;;;;5045088;28;20460;-78
2022/11/30 02:24:18;;;;;;;25.73;15.15;;;;;;;;;;5052654;28;20072;-78
2022/11/30 02:26:50;;;;;;;30.10;16.30;;;;;;;;;;5042921;28;20033;-78
2022/11/30 02:29:18;;;;;;;26.17;15.32;;;;;;;;;;5024146;28;20472;-78
2022/11/30 02:31:53;;;;;;;31.10;16.00;;;;;;;;;;5023792;28;20028;-78
2022/11/30 02:34:19;;;;;;;28.67;15.60;;;;;;;;;;5026741;28;20033;-78
2022/11/30 02:36:45;;;;;;;;;;;;;;;;;;5028189;28;20381;-78
2022/11/30 02:39:10;;;;;;;28.65;14.75;;;;;;;;;;5049802;28;20660;-78
2022/11/30 02:41:36;;;;;;;;;;;;;;;;;;5026833;28;20029;-78
2022/11/30 02:44:03;;;;;;;26.30;14.05;;;;;;;;;;5067208;28;20006;-78
2022/11/30 02:46:41;;;;;;;31.77;16.05;;;;;;;;;;5043933;28;20021;-78
2022/11/30 02:49:25;;;;;;;28.05;15.70;;;;;;;;;;5035174;28;20455;-78
2022/11/30 02:51:50;;;;;;;29.65;17.15;;;;;;;;;;5058622;28;20068;-78
2022/11/30 02:54:16;;;;;;;;;;;;;;;;;;5028440;28;20055;-78
2022/11/30 02:56:41;;;;;;;26.48;14.52;;;;;;;;;;5043318;28;19917;-78
2022/11/30 02:59:07;;;;;;;32.83;15.52;;;;;;;;;;5044893;28;20021;-78
2022/11/30 03:01:32;;;;;;;;;;;;;;;;;;5025741;28;20041;-78
2022/11/30 03:03:57;;;;;;;28.85;15.65;;;;;;;;;;5044678;28;19931;-78
2022/11/30 03:06:23;;;;;;;;;;;;;;;;;;5060806;28;20060;-78
2022/11/30 03:08:48;;;;;;;31.02;15.38;;;;;;;;;;5062071;28;19912;-77
2022/11/30 03:11:14;;;;;;;;;;;;;;;;;;5076949;28;20037;-78
2022/11/30 03:13:39;;;;;;;30.85;15.52;;;;;;;;;;5062698;28;19923;-79
2022/11/30 03:16:05;;;;;;;;;;;;;;;;;;5025346;28;20041;-78
2022/11/30 03:18:31;;;;;;;32.28;16.40;;;;;;;;;;5042740;28;20058;-78
2022/11/30 03:20:56;;;;;;;32.20;15.48;;;;;;;;;;5037685;28;20048;-78
2022/11/30 03:23:21;;;;;;;;;;;;;;;;;;5022256;28;20191;-78
2022/11/30 03:25:47;;;;;;;33.70;16.08;;;;;;;;;;5059451;28;19913;-78
2022/11/30 03:28:12;;;;;;;;;;;;;;;;;;5043270;28;20032;-78
2022/11/30 03:30:38;;;;;;;29.98;15.38;;;;;;;;;;5038000;28;19913;-78
2022/11/30 03:33:03;;;;;;;;;;;;;;;;;;5050093;28;20107;-78
2022/11/30 03:35:29;;;;;;;28.25;15.40;;;;;;;;;;5042759;28;19919;-78
2022/11/30 03:37:54;;;;;;;34.80;16.42;;;;;;;;;;5045658;28;20029;-78
2022/11/30 03:40:19;;;;;;;;;;;;;;;;;;5043326;28;20459;-78
2022/11/30 03:42:45;;;;;;;33.63;17.27;;;;;;;;;;5045883;28;19915;-78
2022/11/30 03:45:10;;;;;;;;;;;;;;;;;;5075215;28;20052;-78
2022/11/30 03:47:36;;;;;;;32.80;17.05;;;;;;;;;;5063469;28;20422;-79
2022/11/30 03:50:01;;;;;;;;;;;;;;;;;;5021704;28;20043;-79
2022/11/30 03:52:27;;;;;;;33.55;15.23;;;;;;;;;;5027673;28;19923;-79
2022/11/30 03:54:52;;;;;;;;;;;;;;;;;;5034478;28;20029;-79
2022/11/30 03:57:18;;;;;;;32.92;16.52;;;;;;;;;;5045215;28;19908;-78
2022/11/30 03:59:43;;;;;;;;;;;;;;;;;;5020172;28;20496;-79
2022/11/30 04:02:08;;;;;;;29.75;16.98;;;;;;;;;;5045859;28;20490;-79
2022/11/30 04:04:34;;;;;;;;;;;;;;;;;;5059672;28;20061;-79
2022/11/30 04:06:59;;;;;;;29.63;15.65;;;;;;;;;;5047955;28;19966;-79
2022/11/30 04:09:25;;;;;;;;;;;;;;;;;;5042721;28;20122;-78
2022/11/30 04:11:50;;;;;;;31.58;15.82;;;;;;;;;;5064037;28;19908;-79
2022/11/30 04:14:15;;;;;;;;;;;;;;;;;;5041874;28;20029;-78
2022/11/30 04:16:41;;;;;;;34.17;18.05;;;;;;;;;;5062616;28;19951;-78
2022/11/30 04:19:06;;;;;;;;;;;;;;;;;;5024166;28;20060;-78
2022/11/30 04:21:32;;;;;;;33.47;17.33;;;;;;;;;;5043663;28;20283;-78
2022/11/30 04:23:57;;;;;;;;;;;;;;;;;;5040579;28;20036;-78
2022/11/30 04:26:22;;;;;;;32.75;16.65;;;;;;;;;;5059045;28;19918;-79
2022/11/30 04:28:48;;;;;;;;;;;;;;;;;;5038172;28;20369;-79
2022/11/30 04:31:13;;;;;;;34.97;16.60;;;;;;;;;;5022071;28;19959;-80
2022/11/30 04:33:38;;;;;;;;;;;;;;;;;;5035837;28;20422;-78
2022/11/30 04:36:05;;;;;;;34.10;17.98;;;;;;;;;;5070926;28;19922;-79
2022/11/30 04:38:31;;;;;;;51.10;23.73;;;;;;;;;;5030820;28;20021;-78
2022/11/30 04:40:56;;;;;;;;;;;;;;;;;;5024170;28;20125;-78
2022/11/30 04:43:21;;;;;;;39.45;18.15;;;;;;;;;;5046812;28;19915;-78
2022/11/30 04:45:47;;;;;;;;;;;;;;;;;;5035551;28;20040;-79
2022/11/30 04:48:12;;;;;;;39.20;17.65;;;;;;;;;;5040439;28;20369;-78
2022/11/30 04:50:38;;;;;;;;;;;;;;;;;;5038282;28;20043;-78
2022/11/30 04:53:03;;;;;;;35.35;19.27;;;;;;;;;;5038273;28;20514;-79
2022/11/30 04:55:29;;;;;;;;;;;;;;;;;;5038514;28;20043;-78
2022/11/30 04:57:54;;;;;;;46.45;22.10;;;;;;;;;;5056156;28;19913;-78
2022/11/30 05:00:20;;;;;;;;;;;;;;;;;;5032505;28;20059;-79
2022/11/30 05:02:45;;;;;;;35.75;18.13;;;;;;;;;;5042774;28;19913;-79
2022/11/30 05:05:10;;;;;;;;;;;;;;;;;;5065071;28;20656;-78
2022/11/30 05:07:36;;;;;;;39.35;18.33;;;;;;;;;;5073890;28;19908;-78
2022/11/30 05:10:01;;;;;;;;;;;;;;;;;;5068569;28;20035;-77
2022/11/30 05:12:27;;;;;;;36.40;19.00;;;;;;;;;;5081564;28;19909;-77
2022/11/30 05:14:52;;;;;;;;;;;;;;;;;;5063096;28;20036;-78
2022/11/30 05:17:18;;;;;;;36.03;17.30;;;;;;;;;;5079724;28;20429;-78
2022/11/30 05:19:43;;;;;;;;;;;;;;;;;;5060518;28;20040;-77
2022/11/30 05:22:08;;;;;;;37.47;19.45;;;;;;;;;;5053112;28;19970;-77
2022/11/30 05:24:34;;;;;;;;;;;;;;;;;;5071889;28;20105;-79
2022/11/30 05:26:59;;;;;;;42.30;21.70;;;;;;;;;;5055532;28;19909;-79
2022/11/30 05:29:25;;;;;;;;;;;;;;;;;;5055135;28;20039;-80
2022/11/30 05:31:50;;;;;;;37.22;18.20;;;;;;;;;;5077706;28;19909;-77
2022/11/30 05:34:16;;;;;;;;;;;;;;;;;;5047432;28;20036;-79
2022/11/30 05:36:41;;;;;;;38.58;19.52;;;;;;;;;;5068762;28;19908;-79
2022/11/30 05:39:06;;;;;;;;;;;;;;;;;;5071762;28;20047;-79
2022/11/30 05:41:32;;;;;;;37.35;18.90;;;;;;;;;;5067599;28;20398;-79
2022/11/30 05:43:57;;;;;;;;;;;;;;;;;;5071202;28;20401;-79
2022/11/30 05:46:23;;;;;;;35.47;18.00;;;;;;;;;;5066857;28;20006;-78
2022/11/30 05:48:48;;;;;;;;;;;;;;;;;;5088859;28;20033;-79
2022/11/30 05:51:14;;;;;;;36.28;18.20;;;;;;;;;;5074233;28;20409;-78
2022/11/30 05:53:40;;;;;;;;;;;;;;;;;;5053821;28;20032;-78
2022/11/30 05:56:06;;;;;;;37.90;19.15;;;;;;;;;;5065964;28;20346;-79
2022/11/30 05:58:31;;;;;;;39.78;18.38;;;;;;;;;;5060892;28;20035;-78
2022/11/30 06:00:57;;;;;;;;;;;;;;;;;;5066866;28;20024;-79
2022/11/30 06:03:22;;;;;;;38.25;19.63;;;;;;;;;;5080536;28;19912;-79
2022/11/30 06:05:48;;;;;;;;;;;;;;;;;;5063433;28;20038;-78
2022/11/30 06:08:13;;;;;;;40.70;20.20;;;;;;;;;;5078752;28;19912;-79
2022/11/30 06:10:39;;;;;;;;;;;;;;;;;;5074424;28;20571;-79
2022/11/30 06:13:06;;;;;;;35.00;20.23;;;;;;;;;;5088340;28;19946;-79
2022/11/30 06:15:32;;;;;;;45.22;20.95;;;;;;;;;;5083256;28;20025;-77
2022/11/30 06:17:57;;;;;;;;;;;;;;;;;;5078777;28;20036;-76
2022/11/30 06:20:23;;;;;;;39.63;18.27;;;;;;;;;;5065075;28;19912;-78
2022/11/30 06:22:48;;;;;;;;;;;;;;;;;;5088183;28;20497;-78
2022/11/30 06:25:14;;;;;;;43.42;21.17;;;;;;;;;;5073116;28;19916;-76
2022/11/30 06:27:39;;;;;;;;;;;;;;;;;;5068825;28;20479;-78
2022/11/30 06:30:05;;;;;;;43.58;19.30;;;;;;;;;;5073918;28;19956;-80
2022/11/30 06:32:30;;;;;;;;;;;;;;;;;;5069061;28;20020;-80
2022/11/30 06:34:56;;;;;;;43.08;19.58;;;;;;;;;;5080458;28;19912;-80
2022/11/30 06:37:21;;;;;;;;;;;;;;;;;;5086846;28;20056;-78
2022/11/30 06:39:46;;;;;;;40.95;18.55;;;;;;;;;;5065700;28;19919;-80
2022/11/30 06:42:12;;;;;;;;;;;;;;;;;;5087016;28;20035;-79
2022/11/30 06:44:37;;;;;;;39.40;19.10;;;;;;;;;;5083387;28;19916;-79
2022/11/30 06:47:03;;;;;;;;;;;;;;;;;;5067796;28;20039;-79
2022/11/30 06:49:28;;;;;;;37.67;18.13;;;;;;;;;;5074198;28;19923;-79
2022/11/30 06:51:53;;;;;;;;;;;;;;;;;;5071603;28;20029;-80
2022/11/30 06:54:19;;;;;;;41.40;18.30;;;;;;;;;;5070864;28;19916;-77
2022/11/30 06:56:44;;;;;;;;;;;;;;;;;;5057014;28;20064;-78
2022/11/30 06:59:10;;;;;;;43.88;18.90;;;;;;;;;;5074273;28;19923;-77
2022/11/30 07:01:35;;;;;;;;;;;;;;;;;;5079098;28;20048;-77
2022/11/30 07:04:01;;;;;;;41.38;19.02;;;;;;;;;;5078705;28;19993;-79
2022/11/30 07:06:26;;;;;;;;;;;;;;;;;;5082717;28;20040;-79
2022/11/30 07:08:51;;;;;;;37.95;19.17;;;;;;;;;;5064570;28;20015;-79
2022/11/30 07:11:17;;;;;;;;;;;;;;;;;;5065384;28;20434;-79
2022/11/30 07:13:42;;;;;;;40.13;18.42;;;;;;;;;;5083090;28;19919;-79
2022/11/30 07:16:08;;;;;;;;;;;;;;;;;;5065240;28;20030;-78
2022/11/30 07:18:33;;;;;;;36.47;18.08;;;;;;;;;;5083144;28;19916;-79
2022/11/30 07:20:59;;;;;;;;;;;;;;;;;;5064956;28;20024;-78
2022/11/30 07:26:09;;;;;;;39.63;19.75;;;;;;;;;;5076661;28;20036;-79
2022/11/30 07:28:35;;;;;;;;;;;;;;;;;;5062907;28;20111;-79
2022/11/30 07:31:02;;;;;;;42.50;21.73;;;;;;;;;;5066754;28;19946;-78
2022/11/30 07:33:27;;;;;;;37.92;19.42;;;;;;;;;;5051073;28;20091;-78
2022/11/30 07:35:53;;;;;;;;;;;;;;;;;;5071222;28;20063;-79
2022/11/30 07:38:18;;;;;;;41.35;19.10;;;;;;;;;;5057577;28;20407;-78
2022/11/30 07:40:44;;;;;;;;;;;;;;;;;;5083316;28;20040;-76
2022/11/30 07:43:09;;;;;;;39.75;18.48;;;;;;;;;;5084091;28;19916;-78
2022/11/30 07:45:35;;;;;;;;;;;;;;;;;;5072560;28;20035;-78
2022/11/30 07:48:00;;;;;;;37.38;18.33;;;;;;;;;;5084740;28;20390;-78
2022/11/30 07:50:25;;;;;;;;;;;;;;;;;;5065904;28;20561;-79
2022/11/30 07:52:51;;;;;;;35.08;17.58;;;;;;;;;;5078667;28;19930;-80
2022/11/30 07:55:18;;;;;;;;;;;;;;;;;;5089265;28;20043;-78
2022/11/30 07:57:44;;;;;;;29.23;15.05;;;;;;;;;;5075769;28;19971;-80
2022/11/30 08:00:09;;;;;;;;;;;;;;;;;;5070255;28;20063;-78
2022/11/30 08:02:37;;;;;;;34.38;16.52;;;;;;;;;;5082812;28;19915;-79
2022/11/30 08:05:02;;;;;;;;;;;;;;;;;;5087583;28;20139;-78
2022/11/30 08:07:28;;;;;;;35.78;17.55;;;;;;;;;;5082677;28;19955;-78
2022/11/30 08:09:53;;;;;;;38.80;18.63;;;;;;;;;;5063564;28;20029;-78
2022/11/30 08:12:19;;;;;;;;;;;;;;;;;;5069573;28;20380;-78
2022/11/30 08:14:44;;;;;;;32.33;17.23;;;;;;;;;;5066825;28;19939;-80
2022/11/30 08:17:09;;;;;;;;;;;;;;;;;;5083041;28;20039;-80
2022/11/30 08:19:35;;;;;;;36.00;16.20;;;;;;;;;;5068156;28;20371;-78
2022/11/30 08:22:00;;;;;;;38.58;17.70;;;;;;;;;;5048563;28;20017;-79
2022/11/30 08:24:26;;;;;;;;;;;;;;;;;;5068337;28;20040;-78
2022/11/30 08:26:53;;;;;;;33.83;16.25;;;;;;;;;;5083614;28;20382;-80
2022/11/30 08:29:19;;;;;;;37.50;17.13;;;;;;;;;;5068438;28;20482;-78
2022/11/30 08:31:44;;;;;;;;;;;;;;;;;;5062155;28;20024;-79
2022/11/30 08:34:10;;;;;;;33.97;15.93;;;;;;;;;;5081141;28;20335;-78
2022/11/30 08:36:36;;;;;;;28.42;14.95;;;;;;;;;;5052176;28;20017;-80
2022/11/30 08:39:03;;;;;;;33.35;16.00;;;;;;;;;;5055545;28;20032;-79
2022/11/30 08:41:29;;;;;;;33.22;16.38;;;;;;;;;;5066598;28;20028;-79
2022/11/30 08:43:54;;;;;;;;;;;;;;;;;;5083772;28;20044;-79
2022/11/30 08:46:20;;;;;;;31.38;16.08;;;;;;;;;;5048629;28;19959;-79
2022/11/30 08:48:45;;;;;;;;;;;;;;;;;;5071627;28;20047;-79
2022/11/30 08:51:12;;;;;;;32.95;17.38;;;;;;;;;;5067377;28;19908;-78
2022/11/30 08:53:38;;;;;;;32.35;16.73;;;;;;;;;;5061413;28;20111;-77
2022/11/30 08:56:03;;;;;;;;;;;;;;;;;;5066516;28;20116;-77
2022/11/30 08:58:29;;;;;;;35.13;16.52;;;;;;;;;;5088062;28;20366;-80
2022/11/30 09:01:03;;;;;;;32.92;16.58;;;;;;;;;;5066042;28;20443;-80
2022/11/30 09:03:29;;;;;;;37.10;17.67;;;;;;;;;;5062385;28;20058;-80
2022/11/30 09:05:54;;;;;;;;;;;;;;;;;;5065812;28;20036;-82
2022/11/30 09:08:20;;;;;;;34.88;16.83;;;;;;;;;;5062139;28;19912;-84
2022/11/30 09:10:45;;;;;;;;;;;;;;;;;;5075495;28;20028;-83
2022/11/30 09:13:11;;;;;;;29.52;15.75;;;;;;;;;;5068728;28;20022;-85
2022/11/30 09:15:36;;;;;;;;;;;;;;;;;;5063395;28;20027;-83
2022/11/30 09:18:02;;;;;;;28.80;15.25;;;;;;;;;;5078963;28;19912;-86
2022/11/30 09:20:27;;;;;;;30.73;15.82;;;;;;;;;;5082330;28;20103;-85
2022/11/30 09:23:11;;;;;;;30.65;16.48;;;;;;;;;;5080904;28;20090;-83
2022/11/30 09:25:36;;;;;;;;;;;;;;;;;;5062691;28;20060;-85
2022/11/30 09:28:02;;;;;;;29.52;15.85;;;;;;;;;;5054877;28;19908;-85
2022/11/30 09:30:27;;;;;;;31.95;15.90;;;;;;;;;;5061477;28;20039;-85
2022/11/30 09:32:53;;;;;;;;;;;;;;;;;;5054395;28;20044;-85
2022/11/30 09:35:18;;;;;;;32.08;15.25;;;;;;;;;;5072125;28;19923;-84
2022/11/30 09:37:44;;;;;;;32.83;15.85;;;;;;;;;;5072657;28;20028;-84
2022/11/30 09:40:10;;;;;;;27.38;14.98;;;;;;;;;;5063355;28;20079;-84
2022/11/30 09:42:48;;;;;;;30.75;15.27;;;;;;;;;;5045838;28;20038;-83
2022/11/30 09:45:18;;;;;;;31.50;16.65;;;;;;;;;;5061380;28;20041;-83
2022/11/30 09:47:52;;;;;;;31.55;15.50;;;;;;;;;;5049396;28;20081;-82
2022/11/30 09:50:19;;;;;;;29.55;15.95;;;;;;;;;;5065590;28;20380;-84
2022/11/30 09:53:04;;;;;;;32.05;16.25;;;;;;;;;;5065303;28;20028;-83
2022/11/30 09:55:31;;;;;;;29.02;15.57;;;;;;;;;;5061284;28;20028;-83
2022/11/30 09:58:00;;;;;;;28.38;15.05;;;;;;;;;;5062199;28;20422;-84
2022/11/30 10:00:26;;;;;;;27.17;15.05;;;;;;;;;;5050512;28;20036;-84
2022/11/30 10:02:52;;;;;;;28.00;14.38;;;;;;;;;;5055195;28;20494;-82
2022/11/30 10:05:19;;;;;;;24.75;14.23;;;;;;;;;;5068434;28;20056;-84
2022/11/30 10:07:56;;;;;;;25.20;14.10;;;;;;;;;;5061928;28;20119;-84
2022/11/30 10:10:25;;;;;;;27.67;14.00;;;;;;;;;;5078356;28;20124;-82
2022/11/30 10:13:13;;;;;;;24.55;13.63;;;;;;;;;;5063416;28;20029;-81
2022/11/30 10:15:42;;;;;;;25.00;13.65;;;;;;;;;;5069621;28;20044;-81
2022/11/30 10:18:14;;;;;;;23.08;13.32;;;;;;;;;;5059855;28;20031;-82
2022/11/30 10:21:01;;;;;;;22.40;13.73;;;;;;;;;;5059923;28;20121;-82
2022/11/30 10:23:36;;;;;;;22.75;13.20;;;;;;;;;;5043268;28;20151;-83
2022/11/30 10:26:05;;;;;;;24.13;13.52;;;;;;;;;;5063202;28;20428;-83
2022/11/30 10:28:30;;;;;;;20.35;12.25;;;;;;;;;;5062569;28;20177;-82
2022/11/30 10:30:56;;;;;;;22.13;12.48;;;;;;;;;;5074992;28;20115;-82
2022/11/30 10:33:23;;;;;;;25.15;13.98;;;;;;;;;;5071595;28;20139;-82
2022/11/30 10:35:53;;;;;;;20.73;12.48;;;;;;;;;;5080243;28;20037;-83
2022/11/30 10:38:20;;;;;;;20.83;12.75;;;;;;;;;;5066241;28;20535;-82
2022/11/30 10:40:49;;;;;;;26.30;12.60;;;;;;;;;;5072996;28;20827;-83
2022/11/30 10:43:14;;;;;;;26.85;12.68;;;;;;;;;;5082424;28;20536;-82
2022/11/30 10:45:43;;;;;;;21.05;11.52;;;;;;;;;;5072677;28;20029;-82
2022/11/30 10:48:11;;;;;;;20.17;11.80;;;;;;;;;;5082201;28;20028;-83
2022/11/30 10:50:37;;;;;;;19.65;12.05;;;;;;;;;;5072523;28;20487;-83
2022/11/30 10:53:02;;;;;;;19.25;12.27;;;;;;;;;;5059635;28;20020;-82
2022/11/30 10:55:35;;;;;;;18.63;12.00;;;;;;;;;;5068652;28;20032;-82
2022/11/30 10:58:12;;;;;;;19.40;11.73;;;;;;;;;;5053762;28;20028;-81
2022/11/30 11:00:37;;;;;;;17.95;11.95;;;;;;;;;;5059591;28;20548;-82
2022/11/30 11:03:03;;;;;;;20.73;12.02;;;;;;;;;;5064425;28;20063;-83
2022/11/30 11:05:29;;;;;;;17.27;11.27;;;;;;;;;;5064177;28;20065;-82
2022/11/30 11:07:59;;;;;;;20.13;12.27;;;;;;;;;;5066895;28;20067;-82
2022/11/30 11:10:35;;;;;;;17.25;11.38;;;;;;;;;;5065965;28;20036;-81
2022/11/30 11:13:00;;;;;;;19.83;11.55;;;;;;;;;;5066317;28;20029;-82
2022/11/30 11:15:26;;;;;;;17.75;11.85;;;;;;;;;;5073302;28;20020;-82
2022/11/30 11:17:52;;;;;;;20.05;13.68;;;;;;;;;;5084085;28;20041;-84
2022/11/30 11:20:28;;;;;;;19.30;12.10;;;;;;;;;;5073159;28;20446;-82
2022/11/30 11:22:53;;;;;;;17.25;11.50;;;;;;;;;;5091317;28;20487;-81
2022/11/30 11:25:24;;;;;;;21.08;11.75;;;;;;;;;;5051573;28;20028;-82
2022/11/30 11:27:54;;;;;;;18.80;11.73;;;;;;;;;;5083535;28;20040;-82
2022/11/30 11:30:25;;;;;;;20.70;12.02;;;;;;;;;;5068528;28;20040;-81
2022/11/30 11:33:02;;;;;;;17.58;11.75;;;;;;;;;;5079835;28;20479;-81
2022/11/30 11:35:35;;;;;;;20.35;11.55;;;;;;;;;;5061640;28;20078;-83
2022/11/30 11:38:00;;;;;;;16.70;11.05;;;;;;;;;;5070844;28;20491;-80
2022/11/30 11:40:26;;;;;;;20.40;12.00;;;;;;;;;;5092827;28;20028;-82
2022/11/30 11:42:52;;;;;;;18.65;12.13;;;;;;;;;;5083194;28;20123;-81
2022/11/30 11:45:37;;;;;;;19.30;12.20;;;;;;;;;;5058409;28;20054;-81
2022/11/30 11:48:04;;;;;;;19.70;12.10;;;;;;;;;;5072366;28;20082;-81
2022/11/30 11:50:33;;;;;;;19.35;12.30;;;;;;;;;;5073011;28;20021;-83
2022/11/30 11:53:25;;;;;;;20.20;12.88;;;;;;;;;;5071590;28;20037;-83
2022/11/30 11:56:08;;;;;;;21.23;12.57;;;;;;;;;;5074163;28;20032;-83
2022/11/30 11:58:40;;;;;;;20.33;12.45;;;;;;;;;;5069980;28;20035;-83
2022/11/30 12:01:07;;;;;;;17.80;11.60;;;;;;;;;;5067295;28;20032;-83
2022/11/30 12:03:50;;;;;;;21.63;12.10;;;;;;;;;;5072695;28;20572;-82
2022/11/30 12:06:16;;;;;;;21.13;11.98;;;;;;;;;;5061357;28;20438;-84
2022/11/30 12:08:59;;;;;;;22.55;13.13;;;;;;;;;;5066304;28;20036;-83
2022/11/30 12:11:26;;;;;;;23.75;12.70;;;;;;;;;;5082618;28;20052;-83
2022/11/30 12:13:52;;;;;;;22.95;12.65;;;;;;;;;;5048068;28;20062;-83
2022/11/30 12:16:24;;;;;;;20.55;12.55;;;;;;;;;;5070259;28;20460;-83
2022/11/30 12:19:08;;;;;;;21.00;12.05;;;;;;;;;;5047934;28;20064;-83
2022/11/30 12:21:44;;;;;;;23.80;14.13;;;;;;;;;;5067743;28;20147;-84
2022/11/30 12:24:09;;;;;;;21.98;13.75;;;;;;;;;;5081092;28;20036;-84
2022/11/30 12:26:48;;;;;;;22.08;13.80;;;;;;;;;;5074824;28;20089;-83
2022/11/30 12:29:16;;;;;;;25.10;14.15;;;;;;;;;;5066956;28;20024;-84
2022/11/30 12:31:54;;;;;;;23.90;13.40;;;;;;;;;;5083440;28;20020;-84
2022/11/30 12:34:38;;;;;;;22.25;13.50;;;;;;;;;;5056018;28;20039;-82
2022/11/30 12:37:19;;;;;;;23.67;14.23;;;;;;;;;;5052726;28;20120;-82
2022/11/30 12:40:05;;;;;;;23.27;13.63;;;;;;;;;;5046693;28;20032;-83
2022/11/30 12:42:42;;;;;;;24.38;12.75;;;;;;;;;;5047855;28;20510;-83
2022/11/30 12:45:15;;;;;;;23.13;13.30;;;;;;;;;;5056159;28;20051;-85
2022/11/30 12:47:55;;;;;;;27.08;13.93;;;;;;;;;;5067051;28;20031;-83
2022/11/30 12:50:29;;;;;;;23.15;13.30;;;;;;;;;;5088063;28;20383;-84
2022/11/30 12:53:07;;;;;;;26.10;14.32;;;;;;;;;;5069520;28;20032;-84
2022/11/30 12:55:35;;;;;;;25.17;14.45;;;;;;;;;;5077084;28;20488;-84
2022/11/30 12:58:06;;;;;;;24.92;13.77;;;;;;;;;;5065707;28;20395;-83
2022/11/30 13:00:44;;;;;;;28.05;15.18;;;;;;;;;;5083131;28;20036;-84
2022/11/30 13:03:10;;;;;;;28.23;15.07;;;;;;;;;;5072382;28;20579;-82
2022/11/30 13:05:37;;;;;;;24.52;15.27;;;;;;;;;;5073108;28;20076;-84
2022/11/30 13:08:22;;;;;;;36.13;20.38;;;;;;;;;;5068142;28;20044;-82
2022/11/30 13:10:48;;;;;;;33.00;17.67;;;;;;;;;;5076221;28;20064;-85
2022/11/30 13:13:24;;;;;;;29.70;15.68;;;;;;;;;;5066119;28;20033;-84
2022/11/30 13:15:50;;;;;;;28.48;16.33;;;;;;;;;;5047891;28;20103;-84
2022/11/30 13:18:19;;;;;;;25.98;14.65;;;;;;;;;;5069183;28;20507;-84
2022/11/30 13:20:51;;;;;;;27.20;15.82;;;;;;;;;;5063434;28;20526;-84
2022/11/30 13:23:36;;;;;;;27.15;15.15;;;;;;;;;;5070118;28;20125;-84
2022/11/30 13:26:13;;;;;;;30.00;15.80;;;;;;;;;;5070827;28;20138;-83
2022/11/30 13:28:38;;;;;;;;;;;;;;;;;;5064170;28;20043;-83
2022/11/30 13:31:10;;;;;;;30.60;16.80;;;;;;;;;;5072052;28;19912;-83
2022/11/30 13:33:35;;;;;;;26.83;15.45;;;;;;;;;;5051564;28;20032;-83
2022/11/30 13:36:20;;;;;;;27.00;15.68;;;;;;;;;;5079446;28;20028;-83
2022/11/30 13:38:46;;;;;;;31.35;17.42;;;;;;;;;;5057854;28;20115;-83
2022/11/30 13:41:16;;;;;;;31.17;18.08;;;;;;;;;;5062460;28;20157;-85
2022/11/30 13:43:45;;;;;;;33.55;18.13;;;;;;;;;;5061598;28;20132;-85
2022/11/30 13:46:20;;;;;;;33.65;18.55;;;;;;;;;;5074541;28;20043;-82
2022/11/30 13:48:46;;;;;;;33.65;17.60;;;;;;;;;;5043591;28;20411;-83
2022/11/30 13:51:11;;;;;;;31.10;16.73;;;;;;;;;;5067949;28;20020;-82
2022/11/30 13:53:37;;;;;;;29.42;17.27;;;;;;;;;;5079060;28;20036;-83
2022/11/30 13:56:18;;;;;;;26.48;16.63;;;;;;;;;;5059991;28;20026;-84
2022/11/30 13:59:13;;;;;;;32.47;17.75;;;;;;;;;;5072534;28;20036;-84
2022/11/30 14:01:39;;;;;;;33.50;17.05;;;;;;;;;;5025596;28;20045;-85
2022/11/30 14:04:13;;;;;;;31.88;16.45;;;;;;;;;;5069315;28;20530;-85
2022/11/30 14:06:42;;;;;;;32.63;17.75;;;;;;;;;;5079062;28;20514;-84
2022/11/30 14:09:15;;;;;;;30.98;16.27;;;;;;;;;;5087359;28;20055;-83
2022/11/30 14:11:41;;;;;;;29.67;16.90;;;;;;;;;;5049784;28;20039;-83
2022/11/30 14:14:25;;;;;;;29.67;17.02;;;;;;;;;;5061249;28;20024;-84
2022/11/30 14:16:51;;;;;;;35.92;19.85;;;;;;;;;;5071167;28;20059;-84
2022/11/30 14:19:17;;;;;;;36.85;19.95;;;;;;;;;;5064208;28;20026;-84
2022/11/30 14:21:42;;;;;;;34.58;18.52;;;;;;;;;;5044870;28;20558;-84
2022/11/30 14:24:18;;;;;;;34.53;18.33;;;;;;;;;;5059401;28;20025;-83
2022/11/30 14:26:45;;;;;;;33.80;19.23;;;;;;;;;;5044963;28;20032;-85
2022/11/30 14:29:29;;;;;;;35.00;18.88;;;;;;;;;;5046559;28;20036;-86
2022/11/30 14:32:11;;;;;;;34.53;18.90;;;;;;;;;;5058136;28;20048;-84
2022/11/30 14:34:41;;;;;;;34.28;18.63;;;;;;;;;;5068167;28;20035;-84
2022/11/30 14:37:33;;;;;;;33.85;18.45;;;;;;;;;;5059219;28;20402;-84
2022/11/30 14:40:02;;;;;;;38.78;19.80;;;;;;;;;;5083335;28;20059;-84
2022/11/30 14:42:29;;;;;;;36.40;20.17;;;;;;;;;;5078372;28;20024;-84
2022/11/30 14:44:55;;;;;;;34.78;18.80;;;;;;;;;;5048625;28;20040;-83
2022/11/30 14:47:21;;;;;;;36.05;20.08;;;;;;;;;;5053546;28;20028;-85
2022/11/30 14:49:50;;;;;;;37.53;19.40;;;;;;;;;;5064380;28;20032;-85
2022/11/30 14:52:20;;;;;;;34.05;18.92;;;;;;;;;;5081059;28;20098;-84
2022/11/30 14:54:48;;;;;;;37.75;19.80;;;;;;;;;;5046917;28;20128;-84
2022/11/30 14:57:40;;;;;;;35.60;20.00;;;;;;;;;;5063976;28;20030;-84
2022/11/30 15:00:13;;;;;;;36.42;19.00;;;;;;;;;;5069592;28;20125;-84
2022/11/30 15:02:39;;;;;;;35.72;19.70;;;;;;;;;;5053579;28;20064;-84
2022/11/30 15:05:08;;;;;;;38.80;20.38;;;;;;;;;;5060339;28;20090;-83